createdAt,value
2022-07-29T01:13:40.369Z,6.90
2022-07-29T01:16:14.604Z,6.50
2022-07-29T01:23:47.127Z,5.20
2022-07-29T01:30:55.494Z,5.10
2022-07-29T01:33:47.005Z,5.40
2022-07-29T01:36:21.000Z,4.70
2022-07-29T01:43:41.589Z,4.40
2022-07-29T01:46:14.992Z,4.70
2022-07-29T01:48:48.804Z,4.30
2022-07-29T01:56:31.000Z,4.20
2022-07-29T01:59:05.799Z,4.90
2022-07-29T02:01:36.195Z,4.90
2022-07-29T02:04:09.262Z,4.80
2022-07-29T02:07:15.508Z,5.20
2022-07-29T02:09:46.408Z,4.40
2022-07-29T02:12:19.047Z,4.90
2022-07-29T02:15:10.819Z,4.50
2022-07-29T02:22:05.345Z,5.40
2022-07-29T02:24:41.345Z,5.30
2022-07-29T02:27:12.993Z,5.50
2022-07-29T02:29:41.859Z,4.80
2022-07-29T02:32:13.810Z,5.20
2022-07-29T02:34:44.232Z,5.30
2022-07-29T02:37:13.969Z,5.00
2022-07-29T02:39:45.206Z,5.80
2022-07-29T02:42:17.284Z,6.20
2022-07-29T02:44:46.160Z,5.90
2022-07-29T02:51:56.891Z,5.70
2022-07-29T02:54:54.460Z,5.70
2022-07-29T02:57:55.139Z,5.70
2022-07-29T03:00:29.370Z,5.30
2022-07-29T03:03:03.185Z,6.00
2022-07-29T03:05:32.785Z,5.60
2022-07-29T03:08:05.998Z,6.20
2022-07-29T03:10:35.696Z,5.90
2022-07-29T03:13:06.409Z,5.80
2022-07-29T03:18:33.805Z,6.00
2022-07-29T03:21:02.536Z,5.60
2022-07-29T03:23:33.280Z,5.60
2022-07-29T03:26:03.961Z,6.00
2022-07-29T03:28:32.426Z,5.90
2022-07-29T03:31:01.087Z,5.90
2022-07-29T03:33:31.604Z,6.00
2022-07-29T03:36:00.279Z,5.60
2022-07-29T03:38:32.342Z,5.60
2022-07-29T03:41:07.080Z,5.40
2022-07-29T03:43:55.282Z,5.80
2022-07-29T03:46:27.895Z,5.40
2022-07-29T03:49:01.247Z,5.20
2022-07-29T03:51:33.886Z,5.20
2022-07-29T03:54:09.828Z,5.50
2022-07-29T03:56:47.400Z,6.10
2022-07-29T03:59:18.975Z,6.30
2022-07-29T04:01:48.326Z,6.00
2022-07-29T04:04:17.200Z,6.30
2022-07-29T04:06:48.230Z,6.70
2022-07-29T04:09:16.972Z,6.60
2022-07-29T04:11:59.123Z,6.50
2022-07-29T04:14:33.892Z,6.30
2022-07-29T04:17:03.313Z,6.20
2022-07-29T04:19:32.401Z,5.80
2022-07-29T04:22:02.371Z,6.40
2022-07-29T04:24:31.043Z,6.10
2022-07-29T04:26:59.475Z,6.20
2022-07-29T04:29:27.846Z,6.60
2022-07-29T04:31:56.193Z,7.20
2022-07-29T04:34:28.067Z,6.70
2022-07-29T04:36:57.149Z,6.20
2022-07-29T04:39:25.935Z,6.50
2022-07-29T04:41:58.069Z,6.40
2022-07-29T04:44:28.654Z,7.00
2022-07-29T04:46:58.556Z,7.00
2022-07-29T04:49:27.245Z,6.50
2022-07-29T04:51:55.813Z,6.60
2022-07-29T04:54:24.774Z,6.20
2022-07-29T04:56:54.112Z,7.20
2022-07-29T04:59:22.511Z,6.80
2022-07-29T05:01:51.046Z,7.10
2022-07-29T05:04:20.112Z,7.00
2022-07-29T05:06:49.094Z,7.80
2022-07-29T05:09:17.558Z,7.00
2022-07-29T05:11:45.992Z,6.80
2022-07-29T05:14:14.827Z,6.60
2022-07-29T05:16:44.729Z,6.40
2022-07-29T05:19:14.546Z,6.50
2022-07-29T05:21:43.323Z,5.60
2022-07-29T05:24:13.006Z,6.00
2022-07-29T05:26:41.698Z,5.90
2022-07-29T05:29:42.794Z,6.20
2022-07-29T05:31:58.870Z,5.60
2022-07-29T05:34:27.388Z,6.50
2022-07-29T05:36:55.893Z,6.60
2022-07-29T05:39:48.672Z,6.30
2022-07-29T05:42:13.504Z,6.40
2022-07-29T05:44:41.933Z,6.10
2022-07-29T05:47:10.420Z,5.80
2022-07-29T05:49:38.824Z,5.80
2022-07-29T05:52:07.194Z,6.10
2022-07-29T05:54:36.385Z,6.30
2022-07-29T05:57:04.917Z,6.00
2022-07-29T05:59:37.982Z,6.10
2022-07-29T06:02:06.568Z,6.40
2022-07-29T06:04:35.780Z,7.10
2022-07-29T06:07:04.748Z,7.40
2022-07-29T06:09:36.309Z,7.20
2022-07-29T06:12:05.332Z,6.70
2022-07-29T06:14:33.896Z,6.60
2022-07-29T06:17:02.771Z,6.40
2022-07-29T06:19:31.191Z,6.70
2022-07-29T06:21:59.866Z,6.90
2022-07-29T06:24:28.327Z,6.00
2022-07-29T06:26:57.227Z,7.40
2022-07-29T06:29:25.758Z,7.40
2022-07-29T06:31:54.178Z,7.30
2022-07-29T06:34:22.613Z,7.60
2022-07-29T06:36:51.528Z,7.60
2022-07-29T06:39:21.525Z,6.80
2022-07-29T06:41:51.806Z,7.10
2022-07-29T06:44:20.566Z,7.40
2022-07-29T06:46:51.247Z,7.30
2022-07-29T06:49:19.986Z,7.00
2022-07-29T06:51:48.502Z,7.00
2022-07-29T06:54:17.685Z,6.80
2022-07-29T06:56:46.639Z,7.00
2022-07-29T06:59:15.034Z,6.70
2022-07-29T07:18:08.558Z,7.40
2022-07-29T07:20:37.557Z,7.20
2022-07-29T07:23:05.927Z,7.50
2022-07-29T07:25:34.706Z,7.10
2022-07-29T07:28:04.422Z,6.90
2022-07-29T07:30:32.816Z,7.70
2022-07-29T07:33:01.455Z,7.20
2022-07-29T07:35:30.207Z,8.00
2022-07-29T07:37:59.815Z,7.00
2022-07-29T07:40:28.179Z,7.30
2022-07-29T07:42:56.610Z,7.10
2022-07-29T07:45:25.349Z,7.10
2022-07-29T07:47:53.786Z,7.10
2022-07-29T07:50:22.219Z,7.60
2022-07-29T07:52:59.072Z,7.50
2022-07-29T07:55:27.658Z,7.30
2022-07-29T07:57:56.417Z,6.90
2022-07-29T08:00:24.835Z,6.80
2022-07-29T08:02:53.504Z,6.70
2022-07-29T08:08:56.438Z,7.00
2022-07-29T08:11:24.966Z,6.70
2022-07-29T08:13:53.413Z,5.90
2022-07-29T08:16:22.105Z,6.50
2022-07-29T08:18:50.435Z,6.50
2022-07-29T08:21:19.106Z,6.00
2022-07-29T08:23:58.973Z,5.80
2022-07-29T08:26:28.555Z,6.30
2022-07-29T08:28:56.979Z,6.10
2022-07-29T08:31:25.401Z,5.90
2022-07-29T08:33:53.847Z,6.10
2022-07-29T08:36:22.299Z,5.90
2022-07-29T08:38:50.787Z,6.60
2022-07-29T08:41:22.542Z,6.30
2022-07-29T08:43:52.294Z,5.80
2022-07-29T08:46:22.119Z,6.20
2022-07-29T08:48:51.158Z,6.40
2022-07-29T08:51:21.534Z,5.80
2022-07-29T08:53:51.453Z,6.10
2022-07-29T08:58:52.761Z,6.00
2022-07-29T09:01:36.166Z,5.80
2022-07-29T09:04:13.362Z,6.80
2022-07-29T09:06:47.578Z,6.30
2022-07-29T09:09:16.115Z,5.80
2022-07-29T09:11:44.907Z,5.70
2022-07-29T09:14:14.953Z,5.70
2022-07-29T09:17:09.753Z,5.70
2022-07-29T09:19:38.715Z,5.50
2022-07-29T09:22:31.636Z,5.50
2022-07-29T09:25:00.125Z,5.70
2022-07-29T09:27:30.068Z,5.60
2022-07-29T09:32:33.757Z,6.00
2022-07-29T09:37:48.953Z,6.00
2022-07-29T09:40:19.976Z,5.80
2022-07-29T09:42:48.776Z,6.00
2022-07-29T09:45:34.907Z,5.70
2022-07-29T09:48:20.902Z,6.20
2022-07-29T09:50:50.935Z,6.30
2022-07-29T09:56:15.469Z,6.20
2022-07-29T10:01:13.538Z,5.70
2022-07-29T10:06:30.737Z,5.70
2022-07-29T10:09:12.570Z,6.00
2022-07-29T10:11:49.077Z,5.90
2022-07-29T10:14:19.018Z,5.90
2022-07-29T10:16:47.909Z,6.00
2022-07-29T10:19:16.410Z,5.90
2022-07-29T10:21:46.248Z,5.90
2022-07-29T10:26:43.976Z,5.70
2022-07-29T10:29:12.342Z,5.30
2022-07-29T10:31:56.878Z,5.30
2022-07-29T10:34:53.359Z,5.20
2022-07-29T10:37:46.133Z,5.30
2022-07-29T10:40:51.965Z,5.50
2022-07-29T10:43:29.884Z,5.40
2022-07-29T10:46:02.126Z,5.60
2022-07-29T10:48:30.662Z,5.80
2022-07-29T10:51:00.179Z,6.00
2022-07-29T10:53:49.752Z,6.00
2022-07-29T10:56:36.892Z,6.30
2022-07-29T10:59:22.807Z,5.60
2022-07-29T11:01:54.237Z,5.80
2022-07-29T11:04:45.256Z,6.10
2022-07-29T11:07:17.584Z,5.70
2022-07-29T11:10:14.648Z,5.70
2022-07-29T11:12:48.813Z,5.90
2022-07-29T11:15:24.985Z,6.10
2022-07-29T11:17:53.710Z,5.80
2022-07-29T11:20:44.783Z,5.90
2022-07-29T11:23:22.528Z,5.90
2022-07-29T11:26:23.183Z,5.40
2022-07-29T11:28:53.411Z,5.60
2022-07-29T11:31:40.411Z,6.00
2022-07-29T11:34:20.788Z,6.20
2022-07-29T11:37:11.052Z,6.40
2022-07-29T11:39:45.479Z,6.00
2022-07-29T11:42:32.113Z,6.70
2022-07-29T11:45:43.004Z,6.10
2022-07-29T11:48:32.082Z,6.00
2022-07-29T11:51:01.228Z,6.00
2022-07-29T11:53:32.408Z,6.00
2022-07-29T11:56:03.540Z,6.20
2022-07-29T11:58:32.989Z,6.00
2022-07-29T12:01:04.108Z,6.20
2022-07-29T12:03:35.771Z,6.40
2022-07-29T12:06:15.089Z,6.30
2022-07-29T12:08:44.937Z,6.80
2022-07-29T12:11:20.366Z,6.90
2022-07-29T12:13:50.482Z,6.00
2022-07-29T12:16:25.958Z,6.80
2022-07-29T12:18:59.956Z,6.40
2022-07-29T12:21:28.911Z,6.90
2022-07-29T12:24:04.802Z,6.40
2022-07-29T12:26:37.993Z,6.80
2022-07-29T12:29:11.527Z,7.20
2022-07-29T12:31:45.841Z,6.70
2022-07-29T12:34:16.859Z,6.90
2022-07-29T12:36:45.640Z,6.40
2022-07-29T12:39:14.432Z,7.50
2022-07-29T12:41:43.265Z,6.50
2022-07-29T12:44:12.648Z,6.90
2022-07-29T12:46:41.090Z,6.50
2022-07-29T12:49:10.200Z,6.40
2022-07-29T12:51:40.804Z,6.20
2022-07-29T12:54:14.778Z,6.70
2022-07-29T12:56:45.874Z,7.10
2022-07-29T12:59:22.993Z,6.80
2022-07-29T13:01:53.513Z,6.60
2022-07-29T13:04:33.898Z,7.10
2022-07-29T13:09:45.207Z,7.10
2022-07-29T13:12:15.248Z,7.40
2022-07-29T13:14:51.501Z,7.40
2022-07-29T13:17:24.145Z,7.60
2022-07-29T13:20:15.945Z,7.10
2022-07-29T13:22:48.547Z,6.80
2022-07-29T13:25:25.742Z,7.10
2022-07-29T13:27:55.684Z,6.90
2022-07-29T13:30:25.309Z,7.10
2022-07-29T13:32:54.267Z,7.00
2022-07-29T13:35:22.652Z,6.90
2022-07-29T13:37:51.974Z,6.80
2022-07-29T13:40:20.496Z,7.00
2022-07-29T13:42:48.969Z,6.60
2022-07-29T13:45:17.330Z,6.90
2022-07-29T13:47:49.447Z,6.80
2022-07-29T13:50:18.072Z,6.80
2022-07-29T13:52:48.188Z,7.40
2022-07-29T13:55:16.605Z,6.80
2022-07-29T13:57:45.177Z,7.30
2022-07-29T14:00:14.445Z,7.30
2022-07-29T14:02:43.144Z,6.90
2022-07-29T14:05:12.886Z,7.50
2022-07-29T14:07:41.333Z,7.10
2022-07-29T14:10:10.149Z,5.90
2022-07-29T14:12:39.473Z,6.00
2022-07-29T14:36:13.972Z,6.90
2022-07-29T14:38:42.395Z,6.40
2022-07-29T14:41:11.034Z,6.90
2022-07-29T14:43:39.441Z,6.70
2022-07-29T14:46:09.112Z,6.70
2022-07-29T14:48:37.654Z,6.90
2022-07-29T14:51:06.511Z,6.80
2022-07-29T14:53:34.955Z,7.20
2022-07-29T14:56:21.177Z,6.70
2022-07-29T14:58:52.131Z,7.40
2022-07-29T15:01:20.740Z,6.40
2022-07-29T15:03:49.396Z,7.20
2022-07-29T15:06:17.814Z,7.20
2022-07-29T15:08:46.347Z,6.70
2022-07-29T15:11:14.870Z,6.80
2022-07-29T15:13:43.223Z,6.90
2022-07-29T15:16:11.752Z,7.20
2022-07-29T15:18:41.446Z,6.90
2022-07-29T15:21:09.872Z,7.20
2022-07-29T15:23:38.295Z,6.90
2022-07-29T15:26:06.646Z,7.10
2022-07-29T15:28:35.054Z,7.10
2022-07-29T15:31:03.475Z,7.40
2022-07-29T15:33:31.851Z,6.80
2022-07-29T15:36:00.240Z,7.40
2022-07-29T15:38:29.130Z,6.90
2022-07-29T15:40:57.705Z,7.00
2022-07-29T15:43:28.883Z,6.60
2022-07-29T15:46:17.563Z,7.00
2022-07-29T15:48:46.017Z,6.90
2022-07-29T15:51:14.323Z,6.50
2022-07-29T15:53:42.683Z,5.90
2022-07-29T15:56:11.100Z,6.50
2022-07-29T15:58:39.459Z,6.90
2022-07-29T16:01:07.864Z,7.60
2022-07-29T16:03:36.282Z,6.40
2022-07-29T16:06:04.985Z,7.30
2022-07-29T16:08:33.351Z,7.30
2022-07-29T16:11:01.728Z,7.00
2022-07-29T16:13:30.102Z,7.00
2022-07-29T16:16:00.617Z,7.00
2022-07-29T16:18:31.308Z,7.60
2022-07-29T16:20:59.739Z,7.60
2022-07-29T16:23:28.159Z,7.90
2022-07-29T16:26:00.074Z,8.40
2022-07-29T16:28:30.995Z,9.70
2022-07-29T16:30:59.892Z,9.70
2022-07-29T16:33:28.903Z,8.50
2022-07-29T16:36:18.721Z,8.30
2022-07-29T16:38:47.689Z,7.60
2022-07-29T16:41:16.293Z,7.90
2022-07-29T16:43:44.826Z,7.20
2022-07-29T16:46:18.569Z,6.90
2022-07-29T16:48:48.544Z,6.60
2022-07-29T16:51:17.197Z,6.30
2022-07-29T16:53:45.814Z,6.50
2022-07-29T16:56:18.597Z,6.20
2022-07-29T16:58:47.537Z,6.70
2022-07-29T17:01:17.346Z,6.40
2022-07-29T17:04:04.243Z,6.90
2022-07-29T17:06:35.381Z,6.50
2022-07-29T17:09:08.942Z,6.60
2022-07-29T17:11:52.856Z,5.90
2022-07-29T17:14:28.417Z,6.10
2022-07-29T17:17:02.244Z,6.60
2022-07-29T17:19:34.146Z,7.00
2022-07-29T17:22:11.719Z,6.60
2022-07-29T17:24:45.542Z,6.80
2022-07-29T17:27:14.400Z,6.60
2022-07-29T17:29:43.100Z,6.30
2022-07-29T17:32:11.983Z,7.20
2022-07-29T17:34:42.139Z,8.50
2022-07-29T17:37:12.404Z,9.30
2022-07-29T17:39:42.452Z,7.50
2022-07-29T17:42:14.079Z,8.60
2022-07-29T17:44:42.537Z,10.00
2022-07-29T17:47:16.065Z,10.40
2022-07-29T17:49:45.670Z,8.90
2022-07-29T17:52:14.110Z,8.40
2022-07-29T17:54:42.439Z,7.50
2022-07-29T17:57:10.805Z,8.20
2022-07-29T17:59:39.190Z,8.50
2022-07-29T18:02:07.614Z,8.00
2022-07-29T18:04:36.050Z,7.90
2022-07-29T18:07:04.442Z,8.00
2022-07-29T18:09:32.884Z,7.80
2022-07-29T18:12:01.254Z,8.20
2022-07-29T18:14:29.758Z,7.70
2022-07-29T18:16:58.484Z,8.70
2022-07-29T18:19:27.054Z,7.90
2022-07-29T18:21:57.338Z,7.70
2022-07-29T18:24:29.266Z,8.30
2022-07-29T18:26:57.884Z,7.80
2022-07-29T18:29:29.167Z,8.60
2022-07-29T18:31:59.117Z,7.50
2022-07-29T18:34:28.746Z,7.80
2022-07-29T18:36:57.322Z,7.40
2022-07-29T18:39:25.971Z,7.40
2022-07-29T18:41:55.057Z,7.00
2022-07-29T18:44:23.476Z,7.30
2022-07-29T18:46:52.769Z,7.90
2022-07-29T18:49:22.376Z,8.10
2022-07-29T18:51:51.388Z,8.60
2022-07-29T18:54:20.174Z,8.20
2022-07-29T18:56:49.439Z,7.90
2022-07-29T18:59:20.394Z,7.40
2022-07-29T19:01:49.427Z,7.50
2022-07-29T19:04:18.136Z,7.10
2022-07-29T19:06:46.631Z,7.10
2022-07-29T19:09:15.081Z,8.20
2022-07-29T19:11:44.153Z,8.00
2022-07-29T19:14:12.559Z,9.50
2022-07-29T19:16:40.902Z,8.10
2022-07-29T19:19:09.618Z,6.90
2022-07-29T19:21:38.036Z,6.10
2022-07-29T19:24:11.073Z,6.40
2022-07-29T19:26:46.907Z,6.00
2022-07-29T19:29:16.492Z,6.80
2022-07-29T19:31:44.913Z,5.40
2022-07-29T19:34:13.457Z,5.90
2022-07-29T19:36:42.081Z,6.20
2022-07-29T19:39:10.593Z,6.30
2022-07-29T19:41:39.312Z,7.40
2022-07-29T19:44:07.659Z,8.60
2022-07-29T19:46:36.079Z,8.20
2022-07-29T19:49:06.691Z,8.60
2022-07-29T19:51:35.211Z,8.10
2022-07-29T19:54:03.838Z,8.60
2022-07-29T19:56:32.304Z,7.80
2022-07-29T19:59:00.946Z,8.00
2022-07-29T20:01:32.303Z,7.60
2022-07-29T20:04:00.750Z,7.70
2022-07-29T20:06:29.177Z,7.60
2022-07-29T20:08:58.883Z,7.70
2022-07-29T20:11:29.885Z,7.50
2022-07-29T20:13:58.252Z,7.50
2022-07-29T20:16:26.709Z,7.20
2022-07-29T20:18:55.119Z,7.40
2022-07-29T20:21:23.486Z,7.10
2022-07-29T20:23:51.813Z,7.50
2022-07-29T20:26:20.207Z,6.60
2022-07-29T20:28:49.545Z,6.60
2022-07-29T20:31:19.103Z,6.40
2022-07-29T20:33:47.616Z,5.90
2022-07-29T20:36:16.113Z,6.10
2022-07-29T20:38:44.530Z,5.80
2022-07-29T20:41:12.937Z,6.00
2022-07-29T20:43:41.647Z,6.40
2022-07-29T20:46:10.359Z,7.00
2022-07-29T20:48:39.996Z,7.20
2022-07-29T20:51:08.488Z,7.10
2022-07-29T20:53:40.866Z,7.50
2022-07-29T20:56:09.218Z,6.60
2022-07-29T20:58:38.394Z,7.10
2022-07-29T21:01:07.549Z,7.60
2022-07-29T21:03:36.678Z,7.10
2022-07-29T21:06:05.080Z,6.70
2022-07-29T21:08:33.998Z,6.60
2022-07-29T21:11:02.324Z,6.40
2022-07-29T21:13:33.162Z,6.40
2022-07-29T21:16:04.301Z,6.50
2022-07-29T21:18:37.613Z,9.70
2022-07-29T21:21:06.140Z,6.70
2022-07-29T21:23:35.368Z,7.00
2022-07-29T21:26:06.239Z,6.80
2022-07-29T21:28:38.689Z,6.60
2022-07-29T21:31:12.795Z,6.90
2022-07-29T21:33:43.239Z,6.20
2022-07-29T21:36:47.727Z,6.50
2022-07-29T21:39:07.228Z,6.20
2022-07-29T21:41:35.818Z,6.40
2022-07-29T21:44:04.303Z,6.20
2022-07-29T21:46:32.740Z,5.90
2022-07-29T21:49:01.170Z,6.50
2022-07-29T21:51:29.627Z,6.00
2022-07-29T21:53:58.029Z,6.30
2022-07-29T21:56:27.631Z,6.60
2022-07-29T21:58:56.495Z,6.70
2022-07-29T22:01:24.921Z,6.40
2022-07-29T22:03:53.431Z,6.40
2022-07-29T22:06:23.261Z,6.70
2022-07-29T22:08:51.977Z,6.30
2022-07-29T22:11:21.415Z,6.30
2022-07-29T22:13:49.777Z,6.80
2022-07-29T22:16:21.298Z,6.50
2022-07-29T22:18:49.700Z,6.30
2022-07-29T22:21:18.226Z,6.00
2022-07-29T22:23:47.120Z,6.40
2022-07-29T22:26:15.924Z,6.50
2022-07-29T22:28:44.372Z,7.00
2022-07-29T22:31:12.757Z,6.10
2022-07-29T22:33:41.142Z,6.40
2022-07-29T22:36:09.697Z,6.30
2022-07-29T22:38:38.119Z,6.10
2022-07-29T22:41:06.596Z,6.60
2022-07-29T22:43:35.774Z,7.50
2022-07-29T22:46:04.202Z,6.30
2022-07-29T22:48:35.041Z,6.40
2022-07-29T22:51:05.364Z,6.40
2022-07-29T22:53:33.705Z,6.60
2022-07-29T22:56:02.151Z,6.10
2022-07-29T22:58:30.494Z,6.40
2022-07-29T23:00:59.013Z,6.50
2022-07-29T23:03:27.505Z,7.00
2022-07-29T23:05:55.872Z,6.70
2022-07-29T23:08:24.189Z,6.70
2022-07-29T23:10:52.522Z,6.70
2022-07-29T23:13:21.297Z,6.10
2022-07-29T23:15:49.775Z,6.50
2022-07-29T23:18:18.295Z,6.80
2022-07-29T23:20:46.907Z,6.50
2022-07-29T23:23:15.326Z,7.40
2022-07-29T23:25:44.060Z,6.60
2022-07-29T23:28:13.426Z,7.00
2022-07-29T23:30:43.147Z,7.00
2022-07-29T23:33:11.544Z,7.50
2022-07-29T23:35:40.124Z,7.30
2022-07-29T23:38:08.637Z,7.20
2022-07-29T23:40:37.122Z,7.10
2022-07-29T23:43:08.862Z,6.70
2022-07-29T23:45:44.822Z,6.30
2022-07-29T23:48:14.836Z,6.90
2022-07-29T23:50:43.183Z,6.80
2022-07-29T23:53:12.414Z,7.50
2022-07-29T23:55:40.946Z,7.20
2022-07-29T23:58:09.470Z,7.20
